Terminal Aerodrome Forecast
Issued by NWS Dallas/Fort Worth, TX

Home | Current Version | Previous Version | Text Only | Print | Product List | Glossary On
Versions: 1 2 3 4 5 6 7 8 9 10 11 12 13 14 15 16 17 18 19 20 21 22 23 24 25 26 27
216
FTUS44 KFWD 201501 AAB
TAFDFW
TAF AMD
KDFW 201501Z 2015/2118 18015KT P6SM VCSH SCT017 SCT050 SCT250
      TEMPO 2015/2016 BKN019
     FM201800 17016KT P6SM SCT060 SCT120 SCT250
     FM211300 18011KT P6SM SCT015=

USA.gov is the U.S. government's official web portal to all federal, state and local government web resources and services.